Terminal Aerodrome Forecast
Issued by NWS Sterling, VA

Current Version | Previous Version | Graphics & Text | Print | Product List | Glossary On
Versions: 1 2 3 4 5 6 7 8 9 10 11 12 13 14 15 16 17 18 19 20 21 22 23 24 25 26 27 28
000
FTUS41 KLWX 061140
TAFIAD
TAF
KIAD 061140Z 0612/0718 12005KT P6SM SCT008 OVC015
      TEMPO 0612/0614 5SM -SHRA
     FM061600 16007KT P6SM BKN040
     FM062000 15010KT 3SM -TSRA BKN050CB
     FM062300 13006KT 6SM -SHRA VCTS BKN050CB
     FM070300 VRB05KT P6SM SCT050 BKN090=

USA.gov is the U.S. government's official web portal to all federal, state and local government web resources and services.